Flight Track Log - Related Links

Times and Time Zones

All times are in EDT time to prevent confusion due to time zone crossing. See the SKW6345 flight status page for this flight to view local times or setup timezone preferences in your user account.

Time Position Orientation Groundspeed Altitude Reporting Facility
EDT Latitude Longitude Course Direction KTS MPH feet Rate Location/Type
Tue 11:30:30 AM 37.6167 -122.3333 13° North 165 190 1,500  Level Northern Cal TRACON
Tue 11:31:30 AM 37.6000 -122.2667 107° East 255 293 3,700 2,295 Climbing Northern Cal TRACON
Tue 11:33:33 AM 37.6758 -122.1386 53° Northeast 289 333 8,500 2,478 Climbing Oakland Center
Tue 11:34:00 AM 37.8658 -121.7167 North  Level FlightAware Approximate
Tue 11:34:34 AM 37.7633 -122.0742 30° Northeast 302 348 11,300  Level Oakland Center
Tue 11:35:00 AM 38.0035 -121.6800 13° North  Level FlightAware Approximate
Tue 11:35:35 AM 37.8394 -122.0147 32° Northeast 316 364 13,200  Level Oakland Center
Tue 11:36:36 AM 37.9228 -121.9525 30° Northeast 340 391 14,600 1,415 Climbing Oakland Center
Tue 11:37:38 AM 38.0106 -121.8839 32° Northeast 369 425 16,100 1,512 Climbing Oakland Center
Tue 11:38:39 AM 38.1006 -121.8156 31° Northeast 378 435 17,700 1,475 Climbing Oakland Center
Tue 11:39:40 AM 38.1919 -121.7450 31° Northeast 385 443 19,100 1,279 Climbing Oakland Center
Tue 11:40:41 AM 38.2844 -121.6733 31° Northeast 391 450 20,300 1,122 Climbing Oakland Center
Tue 11:41:43 AM 38.3794 -121.5994 31° Northeast 400 460 21,400 1,073 Climbing Oakland Center
Tue 11:42:44 AM 38.4800 -121.5175 33° Northeast 408 470 22,500 1,082 Climbing Oakland Center
Tue 11:43:45 AM 38.5917 -121.4258 33° Northeast 416 479 23,600 984 Climbing Oakland Center
Tue 11:44:46 AM 38.6894 -121.3436 33° Northeast 422 486 24,500 780 Climbing Oakland Center
Tue 11:45:48 AM 38.7822 -121.2678 32° Northeast 427 491 25,200 732 Climbing Oakland Center
Tue 11:46:49 AM 38.8839 -121.1831 33° Northeast 432 497 26,000 738 Climbing Oakland Center
Tue 11:47:50 AM 38.9864 -121.0967 33° Northeast 437 503 26,700 683 Climbing Oakland Center
Tue 11:48:52 AM 39.1106 -120.9917 33° Northeast 441 507 27,400 634 Climbing Oakland Center
Tue 11:49:53 AM 39.2153 -120.9019 34° Northeast 449 517 28,000 492 Climbing Oakland Center
Tue 11:50:54 AM 39.3214 -120.8125 33° Northeast 453 521 28,400 439 Climbing Oakland Center
Tue 11:51:56 AM 39.4278 -120.7222 33° Northeast 456 525 28,900 488 Climbing Oakland Center
Tue 11:52:57 AM 39.5344 -120.6308 33° Northeast 459 528 29,400 492 Climbing Oakland Center
Tue 11:53:58 AM 39.6411 -120.5394 33° Northeast 459 528 29,900 492 Climbing Oakland Center
Tue 11:54:59 AM 39.7478 -120.4494 33° Northeast 458 527 30,400 488 Climbing Oakland Center
Tue 11:56:01 AM 39.8544 -120.3572 34° Northeast 461 531 30,900 293 Climbing Oakland Center
Tue 11:57:02 AM 39.9619 -120.2633 34° Northeast 464 534 31,000 49 Climbing Oakland Center
Tue 11:58:03 AM 40.0842 -120.1586 33° Northeast 475 547 31,000 195 Level Oakland Center
Tue 11:59:05 AM 40.1978 -120.0592 34° Northeast 486 559 31,400 439 Climbing Oakland Center
Tue 12:00:06 PM 40.3097 -119.9603 34° Northeast 484 557 31,900 492 Climbing Oakland Center
Tue 12:01:07 PM 40.4217 -119.8628 34° Northeast 482 555 32,400 488 Climbing Oakland Center
Tue 12:02:09 PM 40.5328 -119.7642 34° Northeast 481 554 32,900 293 Climbing Oakland Center
Tue 12:03:10 PM 40.6444 -119.6639 34° Northeast 480 552 33,000 49 Climbing Oakland Center
Tue 12:04:11 PM 40.7553 -119.5650 34° Northeast 483 556 33,000  Level Oakland Center
Tue 12:05:12 PM 40.8803 -119.4553 34° Northeast 492 566 33,000  Level Oakland Center
Tue 12:06:16 PM 41.0072 -119.3414 34° Northeast 493 567 33,000  Level Salt Lake Center
Tue 12:07:18 PM 41.1178 -119.2428 34° Northeast 495 570 33,000  Level Salt Lake Center
Tue 12:08:20 PM 41.2353 -119.1142 39° Northeast 493 567 33,000  Level Salt Lake Center
Tue 12:09:22 PM 41.3217 -118.9814 49° Northeast 493 567 33,000  Level Salt Lake Center
Tue 12:10:24 PM 41.4217 -118.8286 49° Northeast 492 566 33,000  Level Salt Lake Center
Tue 12:11:26 PM 41.5078 -118.6972 49° Northeast 490 564 33,000  Level Salt Lake Center
Tue 12:12:27 PM 41.5908 -118.5656 50° Northeast 487 560 33,000  Level Salt Lake Center
Tue 12:13:29 PM 41.6908 -118.4100 49° Northeast 490 564 33,000  Level Salt Lake Center
Tue 12:14:31 PM 41.7767 -118.2747 50° Northeast 496 571 33,000  Level Salt Lake Center
Tue 12:15:33 PM 41.8761 -118.1167 50° Northeast 495 570 33,000  Level Salt Lake Center
Tue 12:16:35 PM 41.9619 -117.9808 50° Northeast 497 572 33,000  Level Salt Lake Center
Tue 12:17:37 PM 42.0619 -117.8211 50° Northeast 499 574 33,000  Level Salt Lake Center
Tue 12:18:39 PM 42.1475 -117.6839 50° Northeast 498 573 33,000  Level Salt Lake Center
Tue 12:19:41 PM 42.2328 -117.5464 50° Northeast 499 574 33,000  Level Salt Lake Center
Tue 12:20:43 PM 42.3339 -117.3778 51° Northeast 501 577 33,000  Level Salt Lake Center
Tue 12:21:45 PM 42.4181 -117.2389 51° Northeast 498 573 33,000  Level Salt Lake Center
Tue 12:22:47 PM 42.5164 -117.0764 51° Northeast 499 574 33,000  Level Salt Lake Center
Tue 12:23:48 PM 42.6028 -116.9358 50° Northeast 505 581 33,000  Level Salt Lake Center
Tue 12:24:50 PM 42.7003 -116.7725 51° Northeast 502 578 33,000  Level Salt Lake Center
Tue 12:25:52 PM 42.7853 -116.6322 50° Northeast 503 579 33,000  Level Salt Lake Center
Tue 12:26:54 PM 42.8842 -116.4667 51° Northeast 504 580 33,000  Level Salt Lake Center
Tue 12:27:57 PM 42.9689 -116.3264 50° Northeast 503 579 33,000  Level Salt Lake Center
Tue 12:28:58 PM 43.0681 -116.1594 51° Northeast 506 582 33,000  Level Salt Lake Center
Tue 12:30:00 PM 43.1533 -116.0158 51° Northeast 509 586 33,000  Level Salt Lake Center
Tue 12:31:02 PM 43.2506 -115.8481 51° Northeast 504 580 33,000  Level Salt Lake Center
Tue 12:32:04 PM 43.3344 -115.7036 51° Northeast 505 581 33,000  Level Salt Lake Center
Tue 12:33:06 PM 43.4178 -115.5589 52° Northeast 505 581 33,000  Level Salt Lake Center
Tue 12:34:08 PM 43.5142 -115.3911 52° Northeast 503 579 33,000  Level Salt Lake Center
Tue 12:35:10 PM 43.5967 -115.2469 52° Northeast 501 577 33,000  Level Salt Lake Center
Tue 12:36:12 PM 43.6944 -115.0772 51° Northeast 503 579 33,000  Level Salt Lake Center
Tue 12:37:14 PM 43.7767 -114.9322 52° Northeast 501 577 33,000  Level Salt Lake Center
Tue 12:38:16 PM 43.8728 -114.7622 52° Northeast 501 577 33,000  Level Salt Lake Center
Tue 12:39:18 PM 43.9547 -114.6158 52° Northeast 503 579 33,000  Level Salt Lake Center
Tue 12:40:20 PM 44.0489 -114.4461 52° Northeast 498 573 33,000  Level Salt Lake Center
Tue 12:41:22 PM 44.1308 -114.3003 52° Northeast 499 574 33,000  Level Salt Lake Center
Tue 12:42:24 PM 44.2242 -114.1289 53° Northeast 500 575 33,000  Level Salt Lake Center
Tue 12:43:25 PM 44.3028 -113.9811 53° Northeast 500 575 33,000  Level Salt Lake Center
Tue 12:44:27 PM 44.3939 -113.8142 53° Northeast 500 575 33,000  Level Salt Lake Center
Tue 12:45:29 PM 44.4761 -113.6653 52° Northeast 504 580 33,000  Level Salt Lake Center
Tue 12:46:31 PM 44.5689 -113.4908 53° Northeast 502 578 33,000  Level Salt Lake Center
Tue 12:47:33 PM 44.6483 -113.3417 53° Northeast 499 574 33,000  Level Salt Lake Center
Tue 12:48:35 PM 44.7422 -113.1658 53° Northeast 502 578 33,000  Level Salt Lake Center
Tue 12:49:37 PM 44.8225 -113.0150 53° Northeast 503 579 33,000 -146 Level Salt Lake Center
Tue 12:50:38 PM 44.9031 -112.8644 53° Northeast 503 579 32,700 -1,854 Descending Salt Lake Center
Tue 12:51:40 PM 45.0003 -112.6803 53° Northeast 519 597 29,200 -3,097 Descending Salt Lake Center
Tue 12:52:42 PM 45.0814 -112.5250 53° Northeast 512 589 26,300 -3,048 Descending Salt Lake Center
Tue 12:53:44 PM 45.1714 -112.3533 53° Northeast 490 564 22,900 -3,048 Descending Salt Lake Center
Tue 12:54:46 PM 45.2431 -112.2117 54° Northeast 468 539 20,000 -2,780 Descending Salt Lake Center
Tue 12:55:47 PM 45.3119 -112.0772 54° Northeast 437 503 17,200 -2,878 Descending Salt Lake Center
Tue 12:56:49 PM 45.3783 -111.9450 54° Northeast 418 481 14,100 -2,032 Descending Salt Lake Center
Tue 12:57:51 PM 45.4547 -111.7972 54° Northeast 392 451 13,000 -581 Descending Salt Lake Center
Tue 12:58:53 PM 45.5128 -111.6814 54° Northeast 366 421 12,900 -878 Descending Salt Lake Center
Tue 12:59:54 PM 45.5717 -111.5636 54° Northeast 364 419 11,200 -1,171 Descending Salt Lake Center
Tue 01:00:56 PM 45.6283 -111.4492 55° Northeast 359 413 10,500 -968 Descending Salt Lake Center
Tue 01:01:58 PM 45.6764 -111.3411 57° Northeast 341 392 9,200 -1,210 Descending Salt Lake Center
Tue 01:03:00 PM 45.6942 -111.2278 77° East 314 361 8,000 -774 Descending Salt Lake Center
Tue 01:04:02 PM 45.7006 -111.1358 84° East 259 298 7,600 -387 Descending Salt Lake Center

Login

Don't have an account? Register now (free) for customized features, flight alerts, and more!